Northfield Falls, VT (05664)

5:56 AM EDT on August 27, 2016 (GMT -0400)
Herring Brook Road | | Change Station

Elev 994 ft 44.25 °N, 72.67 °W | Updated 8 minutes ago

Clear
Clear
55.4 °F
Feels Like 55.4 °F
N
0.0
Wind Variable Wind from North

Today
High -- | Low -- °F
--% Chance of Precip.
Yesterday
High -- | Low -- °F
Precip. -- in
Pressure 30.22 in
Visibility 10.0 miles
Clouds Clear
Dew Point 55 °F
Humidity 98%
Rainfall 0.00 in
Snow Depth Not available.
6:08 AM 7:34 PM
Waning Crescent, 26% visible
METAR KMPV 270951Z AUTO 00000KT 10SM CLR 13/12 A3022 RMK AO2 SLP231 T01330122
Pressure 30.22 in
Visibility 10.0 miles
Clouds Clear
Dew Point 55 °F
Humidity 98%
Rainfall 0.00 in
Snow Depth Not available.
6:08 AM 7:34 PM
Waning Crescent, 26% visible
METAR KMPV 270951Z AUTO 00000KT 10SM CLR 13/12 A3022 RMK AO2 SLP231 T01330122

10-Day Weather Forecast

Almanac

Astronomy

Aug. 27, 2016 Rise Set
Actual Time
Civil Twilight
Nautical Twilight
Astronomical Twilight
Moon
Length of Visible Light
Length of Day
Tomorrow will be .
, % of the Moon is Illuminated

Today's Extremes

State Highs State Lows

Community

WunderPhotos

Upload Photos

1,935,313 photos uploaded!

WunderBlog® & News

Nearby

Air Quality

  Air Quality AQ Index Pollutant
Not available.

Snow Depth

Station Depth Elevation

Earthquake Activity

City Distance Mag. Time & Date
Minimum magnitude displayed is 2.5.

Coastal Water Temperatures

Place Temperature

Stations

Nearby Weather Stations

Station Location Temp. Windchill Dew Point Humidity Wind Precip. Elev Updated Type
                   

Watches & Warnings

There are currently no watches in effect.